createdAt,value
2022-09-01T00:00:01.341Z,76.73
2022-09-01T00:02:29.249Z,79.34
2022-09-01T00:04:58.999Z,82.85
2022-09-01T00:07:32.706Z,82.69
2022-09-01T00:10:00.426Z,80.75
2022-09-01T00:12:28.204Z,81.68
2022-09-01T00:14:55.635Z,84.07
2022-09-01T00:17:22.603Z,85.99
2022-09-01T00:19:49.623Z,88.06
2022-09-01T00:22:16.808Z,82.90
2022-09-01T00:24:43.752Z,87.52
2022-09-01T00:27:10.704Z,84.73
2022-09-01T00:29:38.027Z,87.67
2022-09-01T00:32:10.446Z,88.43
2022-09-01T00:34:37.418Z,85.91
2022-09-01T00:37:04.495Z,86.24
2022-09-01T00:39:31.520Z,86.04
2022-09-01T00:41:59.492Z,87.55
2022-09-01T00:44:29.569Z,87.48
2022-09-01T00:46:59.716Z,89.82
2022-09-01T00:49:31.395Z,87.30
2022-09-01T00:52:06.023Z,92.42
2022-09-01T00:54:40.207Z,93.73
2022-09-01T00:57:09.197Z,95.46
2022-09-01T00:59:39.224Z,95.82
2022-09-01T01:02:06.453Z,98.84
2022-09-01T01:04:33.482Z,100.00
2022-09-01T01:07:03.216Z,100.00
2022-09-01T01:09:33.822Z,100.00
2022-09-01T01:12:03.754Z,100.00
2022-09-01T01:14:32.532Z,99.75
2022-09-01T01:17:00.934Z,96.22
2022-09-01T01:20:04.971Z,97.75
2022-09-01T01:23:02.557Z,100.00
2022-09-01T01:25:50.953Z,100.00
2022-09-01T01:28:22.570Z,100.00
2022-09-01T01:31:01.945Z,100.00
2022-09-01T01:33:40.857Z,100.00
2022-09-01T01:36:14.744Z,100.00
2022-09-01T01:38:47.055Z,100.00
2022-09-01T01:41:15.048Z,100.00
2022-09-01T01:43:42.476Z,100.00
2022-09-01T01:46:11.209Z,100.00
2022-09-01T01:48:40.739Z,100.00
2022-09-01T01:51:09.082Z,100.00
2022-09-01T01:53:38.223Z,100.00
2022-09-01T01:56:06.413Z,100.00
2022-09-01T01:58:35.076Z,99.29
2022-09-01T02:01:03.873Z,98.64
2022-09-01T02:03:38.692Z,98.51
2022-09-01T02:06:10.401Z,98.24
2022-09-01T02:08:38.431Z,92.47
2022-09-01T02:11:06.483Z,94.53
2022-09-01T02:13:34.326Z,96.86
2022-09-01T02:16:07.947Z,98.92
2022-09-01T02:18:37.768Z,100.00
2022-09-01T02:21:16.417Z,100.00
2022-09-01T02:23:47.907Z,100.00
2022-09-01T02:26:17.451Z,100.00
2022-09-01T02:28:54.692Z,100.00
2022-09-01T02:31:23.938Z,100.00
2022-09-01T02:33:51.148Z,100.00
2022-09-01T02:36:19.749Z,100.00
2022-09-01T02:38:53.188Z,100.00
2022-09-01T02:41:23.242Z,100.00
2022-09-01T02:43:51.017Z,100.00
2022-09-01T02:46:20.549Z,100.00
2022-09-01T02:48:51.728Z,100.00
2022-09-01T02:51:20.539Z,100.00
2022-09-01T02:53:49.937Z,100.00
2022-09-01T02:56:18.406Z,100.00
2022-09-01T02:58:46.530Z,100.00
2022-09-01T03:01:19.787Z,100.00
2022-09-01T03:03:48.524Z,100.00
2022-09-01T03:06:18.635Z,100.00
2022-09-01T03:08:46.100Z,100.00
2022-09-01T03:11:13.560Z,100.00
2022-09-01T03:13:41.480Z,100.00
2022-09-01T03:16:09.344Z,100.00
2022-09-01T03:18:37.119Z,100.00
2022-09-01T03:21:05.396Z,100.00
2022-09-01T03:23:34.171Z,100.00
2022-09-01T03:26:01.873Z,100.00
2022-09-01T03:28:29.236Z,100.00
2022-09-01T03:30:57.485Z,100.00
2022-09-01T03:33:25.809Z,100.00
2022-09-01T03:35:53.539Z,100.00
2022-09-01T03:38:23.181Z,100.00
2022-09-01T03:40:59.175Z,100.00
2022-09-01T03:43:35.854Z,100.00
2022-09-01T03:46:03.786Z,100.00
2022-09-01T03:48:32.240Z,100.00
2022-09-01T03:51:03.505Z,100.00
2022-09-01T03:53:33.123Z,100.00
2022-09-01T03:56:00.326Z,100.00
2022-09-01T03:58:27.824Z,100.00
2022-09-01T04:00:57.216Z,100.00
2022-09-01T04:03:28.499Z,100.00
2022-09-01T04:05:56.731Z,100.00
2022-09-01T04:08:32.740Z,100.00
2022-09-01T04:11:11.398Z,100.00
2022-09-01T04:13:41.152Z,100.00
2022-09-01T04:16:32.690Z,100.00
2022-09-01T04:19:00.674Z,100.00
2022-09-01T04:21:27.622Z,98.00
2022-09-01T04:23:58.240Z,91.69
2022-09-01T04:26:28.293Z,90.37
2022-09-01T04:28:56.096Z,85.67
2022-09-01T04:31:23.226Z,86.16
2022-09-01T04:33:55.726Z,85.45
2022-09-01T04:36:27.957Z,83.99
2022-09-01T04:38:57.847Z,84.69
2022-09-01T04:41:27.195Z,85.21
2022-09-01T04:43:57.155Z,88.16
2022-09-01T04:46:28.678Z,82.93
2022-09-01T04:48:57.831Z,78.76
2022-09-01T04:51:28.173Z,80.94
2022-09-01T04:53:57.654Z,77.74
2022-09-01T04:56:26.957Z,78.59
2022-09-01T04:58:57.172Z,78.08
2022-09-01T05:01:26.432Z,81.30
2022-09-01T05:04:01.565Z,88.25
2022-09-01T05:06:34.114Z,90.45
2022-09-01T05:09:01.009Z,91.30
2022-09-01T05:11:27.974Z,87.58
2022-09-01T05:13:57.910Z,82.37
2022-09-01T05:16:28.038Z,82.32
2022-09-01T05:18:57.249Z,81.97
2022-09-01T05:21:29.029Z,81.38
2022-09-01T05:23:58.224Z,79.59
2022-09-01T05:26:27.923Z,85.49
2022-09-01T05:28:58.779Z,87.22
2022-09-01T05:31:28.665Z,90.92
2022-09-01T05:33:58.397Z,88.75
2022-09-01T05:36:25.959Z,90.41
2022-09-01T05:38:52.885Z,91.86
2022-09-01T05:41:21.249Z,94.14
2022-09-01T05:43:56.388Z,92.66
2022-09-01T05:46:28.482Z,97.01
2022-09-01T05:48:56.252Z,97.09
2022-09-01T05:51:43.238Z,96.44
2022-09-01T05:54:12.467Z,91.96
2022-09-01T05:56:44.285Z,88.13
2022-09-01T05:59:28.328Z,83.89
2022-09-01T06:01:55.633Z,85.76
2022-09-01T06:04:25.780Z,83.16
2022-09-01T06:07:11.098Z,83.18
2022-09-01T06:09:41.760Z,80.57
2022-09-01T06:12:18.252Z,73.28
2022-09-01T06:14:47.342Z,73.76
2022-09-01T06:17:16.858Z,74.49
2022-09-01T06:19:44.292Z,74.45
2022-09-01T06:22:11.382Z,73.43
2022-09-01T06:24:40.124Z,69.41
2022-09-01T06:27:09.974Z,66.56
2022-09-01T06:29:40.075Z,68.13
2022-09-01T06:32:10.623Z,66.54
2022-09-01T06:34:42.689Z,66.93
2022-09-01T06:37:11.186Z,67.20
2022-09-01T06:39:38.439Z,69.65
2022-09-01T06:42:06.402Z,68.04
2022-09-01T06:44:33.856Z,65.38
2022-09-01T06:47:01.276Z,66.82
2022-09-01T06:49:34.919Z,63.82
2022-09-01T06:52:05.842Z,64.95
2022-09-01T06:54:34.874Z,60.19
2022-09-01T06:59:54.275Z,60.33
2022-09-01T07:02:27.202Z,60.30
2022-09-01T07:04:54.624Z,59.99
2022-09-01T07:10:25.726Z,61.73
2022-09-01T07:13:09.035Z,61.76
2022-09-01T07:18:28.416Z,61.55
2022-09-01T07:21:36.287Z,66.04
2022-09-01T07:23:47.250Z,68.26
2022-09-01T07:26:49.070Z,68.59
2022-09-01T07:29:16.755Z,67.49
2022-09-01T07:31:52.198Z,64.77
2022-09-01T07:34:38.531Z,64.89
2022-09-01T07:39:53.790Z,66.04
2022-09-01T07:45:27.137Z,61.31
2022-09-01T07:47:55.059Z,61.04
2022-09-01T07:50:39.851Z,60.76
2022-09-01T07:53:09.480Z,60.39
2022-09-01T07:55:41.284Z,66.50
2022-09-01T07:58:09.137Z,68.62
2022-09-01T08:00:37.290Z,65.89
2022-09-01T08:03:04.264Z,67.11
2022-09-01T08:05:31.373Z,64.03
2022-09-01T08:07:58.300Z,65.67
2022-09-01T08:10:25.282Z,64.13
2022-09-01T08:12:59.782Z,68.20
2022-09-01T08:16:06.777Z,66.81
2022-09-01T08:18:14.993Z,63.50
2022-09-01T08:20:47.565Z,66.54
2022-09-01T08:23:18.617Z,62.01
2022-09-01T08:25:47.436Z,58.80
2022-09-01T08:28:15.670Z,57.71
2022-09-01T08:30:52.195Z,64.11
2022-09-01T08:33:19.516Z,67.67
2022-09-01T08:35:48.205Z,71.61
2022-09-01T08:38:15.489Z,69.84
2022-09-01T08:40:43.484Z,69.70
2022-09-01T08:43:42.721Z,68.65
2022-09-01T08:46:28.247Z,75.43
2022-09-01T08:51:54.038Z,84.61
2022-09-01T08:54:32.999Z,93.55
2022-09-01T08:57:05.744Z,94.20
2022-09-01T08:59:32.749Z,98.38
2022-09-01T09:02:08.625Z,98.82
2022-09-01T09:04:49.435Z,99.26
2022-09-01T09:07:22.943Z,97.21
2022-09-01T09:10:10.868Z,99.51
2022-09-01T09:12:50.137Z,100.00
2022-09-01T09:15:46.011Z,100.00
2022-09-01T09:18:54.695Z,99.78
2022-09-01T09:21:30.251Z,100.00
2022-09-01T09:24:22.657Z,100.00
2022-09-01T09:26:59.045Z,97.44
2022-09-01T09:29:27.446Z,94.67
2022-09-01T09:32:22.590Z,95.63
2022-09-01T09:34:50.567Z,94.89
2022-09-01T09:37:27.559Z,90.57
2022-09-01T09:40:16.426Z,89.45
2022-09-01T09:42:57.346Z,89.29
2022-09-01T09:45:29.395Z,91.15
2022-09-01T09:47:57.566Z,91.54
2022-09-01T09:50:42.214Z,95.11
2022-09-01T09:53:12.007Z,86.80
2022-09-01T09:55:55.913Z,88.59
2022-09-01T09:58:28.637Z,81.84
2022-09-01T10:01:09.469Z,79.07
2022-09-01T10:03:44.547Z,74.98
2022-09-01T10:06:13.667Z,72.12
2022-09-01T10:08:45.650Z,75.21
2022-09-01T10:11:32.834Z,72.13
2022-09-01T10:14:02.787Z,74.95
2022-09-01T10:16:32.467Z,80.16
2022-09-01T10:19:01.209Z,77.61
2022-09-01T10:21:34.963Z,75.07
2022-09-01T10:24:21.191Z,77.65
2022-09-01T10:26:52.771Z,73.58
2022-09-01T10:29:34.789Z,75.34
2022-09-01T10:32:30.664Z,71.54
2022-09-01T10:34:51.307Z,70.54
2022-09-01T10:37:18.277Z,69.45
2022-09-01T10:40:13.183Z,68.81
2022-09-01T10:42:45.251Z,70.71
2022-09-01T10:45:33.344Z,68.87
2022-09-01T10:48:35.850Z,70.48
2022-09-01T10:51:18.227Z,69.91
2022-09-01T10:53:47.324Z,67.64
2022-09-01T10:56:28.421Z,66.47
2022-09-01T10:59:38.737Z,67.22
2022-09-01T11:02:27.598Z,61.24
2022-09-01T11:04:55.283Z,57.64
2022-09-01T11:07:50.084Z,58.40
2022-09-01T11:10:11.868Z,58.09
2022-09-01T11:13:23.452Z,58.56
2022-09-01T11:15:50.537Z,55.61
2022-09-01T11:18:27.406Z,57.66
2022-09-01T11:20:56.335Z,55.37
2022-09-01T11:23:29.592Z,52.13
2022-09-01T11:28:46.252Z,53.67
2022-09-01T11:31:21.391Z,52.82
2022-09-01T11:34:05.554Z,57.63
2022-09-01T11:36:37.313Z,58.25
2022-09-01T11:39:30.277Z,59.55
2022-09-01T11:42:06.300Z,56.35
2022-09-01T11:44:35.941Z,61.00
2022-09-01T11:47:12.089Z,60.33
2022-09-01T11:49:49.309Z,59.47
2022-09-01T11:52:18.430Z,59.41
2022-09-01T11:54:48.736Z,57.44
2022-09-01T11:57:18.326Z,53.94
2022-09-01T11:59:45.753Z,50.51
2022-09-01T12:02:25.346Z,50.61
2022-09-01T12:04:56.970Z,55.18
2022-09-01T12:07:38.712Z,55.56
2022-09-01T12:10:15.957Z,54.57
2022-09-01T12:12:42.938Z,52.00
2022-09-01T12:15:18.856Z,52.67
2022-09-01T12:17:49.686Z,51.29
2022-09-01T12:20:29.439Z,49.24
2022-09-01T12:22:59.106Z,49.17
2022-09-01T12:25:32.646Z,54.33
2022-09-01T12:28:04.173Z,55.82
2022-09-01T12:30:35.534Z,54.87
2022-09-01T12:35:54.058Z,53.37
2022-09-01T12:38:25.748Z,52.58
2022-09-01T12:40:55.245Z,52.41
2022-09-01T12:43:39.726Z,52.27
2022-09-01T12:46:09.420Z,51.29
2022-09-01T12:48:39.762Z,51.47
2022-09-01T12:51:30.889Z,50.34
2022-09-01T12:54:04.911Z,47.56
2022-09-01T12:56:36.540Z,49.21
2022-09-01T12:59:14.258Z,50.44
2022-09-01T13:01:44.627Z,49.78
2022-09-01T13:04:15.318Z,48.26
2022-09-01T13:06:42.363Z,48.87
2022-09-01T13:09:10.224Z,47.82
2022-09-01T13:14:25.857Z,48.36
2022-09-01T13:16:52.860Z,47.06
2022-09-01T13:19:27.383Z,47.07
2022-09-01T13:21:54.917Z,49.26
2022-09-01T13:24:25.786Z,48.25
2022-09-01T13:29:45.217Z,50.13
2022-09-01T13:32:20.941Z,50.82
2022-09-01T13:34:50.726Z,50.45
2022-09-01T13:37:19.409Z,49.59
2022-09-01T13:39:47.402Z,46.76
2022-09-01T13:42:15.972Z,46.36
2022-09-01T13:44:44.122Z,48.39
2022-09-01T13:50:09.712Z,52.42
2022-09-01T13:52:39.259Z,53.61
2022-09-01T13:55:07.598Z,54.74
2022-09-01T13:57:35.757Z,52.13
2022-09-01T14:00:05.865Z,48.98
2022-09-01T14:02:32.805Z,47.76
2022-09-01T14:04:59.784Z,45.85
2022-09-01T14:07:26.781Z,47.03
2022-09-01T14:09:53.706Z,48.64
2022-09-01T14:12:20.679Z,51.63
2022-09-01T14:17:35.560Z,49.19
2022-09-01T14:20:02.897Z,50.25
2022-09-01T14:22:30.617Z,49.29
2022-09-01T14:24:59.449Z,48.77
2022-09-01T14:27:26.453Z,46.62
2022-09-01T14:29:54.823Z,48.80
2022-09-01T14:32:27.294Z,45.88
2022-09-01T14:34:55.113Z,47.30
2022-09-01T14:37:22.272Z,49.68
2022-09-01T14:39:53.484Z,48.66
2022-09-01T14:42:20.802Z,48.86
2022-09-01T14:44:48.254Z,47.71
2022-09-01T14:47:19.053Z,48.05
2022-09-01T14:49:46.945Z,49.16
2022-09-01T14:52:14.510Z,50.06
2022-09-01T14:54:42.716Z,50.77
2022-09-01T14:59:56.867Z,48.33
2022-09-01T15:02:25.495Z,50.79
2022-09-01T15:04:52.628Z,51.13
2022-09-01T15:07:19.627Z,51.74
2022-09-01T15:09:46.557Z,53.78
2022-09-01T15:12:13.557Z,53.27
2022-09-01T15:14:40.546Z,53.80
2022-09-01T15:17:07.973Z,54.02
2022-09-01T15:19:34.965Z,54.43
2022-09-01T15:22:02.011Z,53.50
2022-09-01T15:24:28.960Z,53.24
2022-09-01T15:26:55.904Z,54.78
2022-09-01T15:29:22.842Z,55.15
2022-09-01T15:31:49.929Z,53.30
2022-09-01T15:34:19.122Z,53.34
2022-09-01T15:36:46.120Z,54.50
2022-09-01T15:39:13.151Z,54.71
2022-09-01T15:41:40.280Z,53.71
2022-09-01T15:44:08.082Z,54.76
2022-09-01T15:46:36.520Z,54.00
2022-09-01T15:49:07.029Z,52.22
2022-09-01T15:51:35.382Z,55.06
2022-09-01T15:54:11.964Z,54.72
2022-09-01T15:56:39.094Z,53.64
2022-09-01T15:59:07.792Z,53.00
2022-09-01T16:01:39.103Z,51.87
2022-09-01T16:04:08.140Z,48.70
2022-09-01T16:06:35.525Z,47.97
2022-09-01T16:09:02.470Z,51.02
2022-09-01T16:11:29.414Z,52.67
2022-09-01T16:13:56.535Z,52.46
2022-09-01T16:16:40.070Z,51.94
2022-09-01T16:19:21.995Z,54.06
2022-09-01T16:22:04.045Z,53.50
2022-09-01T16:24:30.954Z,53.43
2022-09-01T16:26:57.949Z,53.75
2022-09-01T16:29:47.859Z,52.38
2022-09-01T16:32:15.890Z,51.78
2022-09-01T16:34:47.313Z,51.83
2022-09-01T16:37:26.272Z,51.24
2022-09-01T16:40:15.057Z,52.20
2022-09-01T16:42:47.154Z,49.85
2022-09-01T16:45:32.910Z,48.42
2022-09-01T16:47:59.752Z,49.65
2022-09-01T16:50:46.049Z,49.55
2022-09-01T16:53:28.615Z,49.45
2022-09-01T16:56:08.387Z,48.10
2022-09-01T16:58:53.870Z,50.06
2022-09-01T17:01:49.755Z,51.24
2022-09-01T17:04:28.483Z,48.05
2022-09-01T17:07:06.224Z,51.79
2022-09-01T17:09:42.034Z,51.75
2022-09-01T17:12:23.489Z,51.22
2022-09-01T17:14:58.479Z,51.52
2022-09-01T17:17:33.815Z,52.37
2022-09-01T17:20:02.219Z,51.47
2022-09-01T17:22:29.265Z,50.95
2022-09-01T17:25:01.119Z,50.03
2022-09-01T17:27:40.220Z,51.51
2022-09-01T17:30:07.774Z,53.77
2022-09-01T17:32:49.857Z,52.59
2022-09-01T17:35:26.276Z,51.47
2022-09-01T17:38:20.399Z,51.35
2022-09-01T17:41:07.075Z,50.54
2022-09-01T17:43:53.320Z,50.86
2022-09-01T17:46:38.701Z,49.75
2022-09-01T17:49:36.533Z,50.41
2022-09-01T17:52:33.984Z,51.01
2022-09-01T17:55:11.829Z,55.50
2022-09-01T17:57:47.591Z,54.36
2022-09-01T18:00:26.900Z,55.40
2022-09-01T18:03:10.003Z,54.40
2022-09-01T18:05:43.828Z,56.39
2022-09-01T18:08:36.599Z,57.17
2022-09-01T18:11:27.976Z,55.74
2022-09-01T18:14:16.448Z,55.45
2022-09-01T18:17:04.108Z,54.98
2022-09-01T18:19:38.115Z,57.07
2022-09-01T18:22:15.530Z,56.06
2022-09-01T18:24:52.253Z,55.69
2022-09-01T18:27:19.239Z,53.90
2022-09-01T18:29:52.175Z,53.25
2022-09-01T18:32:35.077Z,54.10
2022-09-01T18:35:19.969Z,52.18
2022-09-01T18:37:58.652Z,51.30
2022-09-01T18:40:30.462Z,51.77
2022-09-01T18:43:01.826Z,53.18
2022-09-01T18:46:09.282Z,51.75
2022-09-01T18:49:00.077Z,52.07
2022-09-01T18:51:36.028Z,48.59
2022-09-01T18:54:17.077Z,50.17
2022-09-01T18:56:49.340Z,48.32
2022-09-01T18:59:46.573Z,48.44
2022-09-01T19:02:50.208Z,47.80
2022-09-01T19:05:59.895Z,47.44
2022-09-01T19:08:48.764Z,47.55
2022-09-01T19:11:24.491Z,44.35
2022-09-01T19:14:11.260Z,45.68
2022-09-01T19:17:00.106Z,45.30
2022-09-01T19:19:44.388Z,43.11
2022-09-01T19:22:22.094Z,44.50
2022-09-01T19:25:19.632Z,44.66
2022-09-01T19:27:56.502Z,44.76
2022-09-01T19:30:23.244Z,44.29
2022-09-01T19:32:50.857Z,45.44
2022-09-01T19:35:18.954Z,47.48
2022-09-01T19:37:50.713Z,47.49
2022-09-01T19:40:32.583Z,47.68
2022-09-01T19:43:07.379Z,47.26
2022-09-01T19:46:11.850Z,44.84
2022-09-01T19:48:43.317Z,45.44
2022-09-01T19:51:18.052Z,45.95
2022-09-01T19:53:49.116Z,44.87
2022-09-01T19:56:49.662Z,46.75
2022-09-01T19:59:27.341Z,46.77
2022-09-01T20:02:04.838Z,46.94
2022-09-01T20:04:43.910Z,46.80
2022-09-01T20:07:31.500Z,47.22
2022-09-01T20:10:14.963Z,47.08
2022-09-01T20:12:50.431Z,46.54
2022-09-01T20:15:35.807Z,45.26
2022-09-01T20:18:06.922Z,47.29
2022-09-01T20:20:46.772Z,49.28
2022-09-01T20:23:36.889Z,48.85
2022-09-01T20:26:09.672Z,47.77
2022-09-01T20:28:51.961Z,46.71
2022-09-01T20:31:40.914Z,47.18
2022-09-01T20:34:29.460Z,44.78
2022-09-01T20:37:17.441Z,47.50
2022-09-01T20:40:01.500Z,48.63
2022-09-01T20:42:46.986Z,48.32
2022-09-01T20:45:20.506Z,48.66
2022-09-01T20:48:02.039Z,47.39
2022-09-01T20:50:38.822Z,46.54
2022-09-01T20:53:33.224Z,46.84
2022-09-01T20:56:09.829Z,47.11
2022-09-01T20:58:46.882Z,48.55
2022-09-01T21:01:24.026Z,48.37
2022-09-01T21:04:00.291Z,47.61
2022-09-01T21:06:37.712Z,46.94
2022-09-01T21:09:11.714Z,46.50
2022-09-01T21:11:43.418Z,46.65
2022-09-01T21:14:14.181Z,47.20
2022-09-01T21:17:05.568Z,47.61
2022-09-01T21:19:45.285Z,46.69
2022-09-01T21:22:17.486Z,46.50
2022-09-01T21:24:48.147Z,46.20
2022-09-01T21:27:23.805Z,45.35
2022-09-01T21:30:09.833Z,46.23
2022-09-01T21:32:37.611Z,47.25
2022-09-01T21:35:08.616Z,45.90
2022-09-01T21:37:35.781Z,44.32
2022-09-01T21:40:03.011Z,45.44
2022-09-01T21:42:39.464Z,46.04
2022-09-01T21:45:08.052Z,47.70
2022-09-01T21:47:35.002Z,48.04
2022-09-01T21:50:02.297Z,48.37
2022-09-01T21:52:29.242Z,48.27
2022-09-01T21:54:56.178Z,48.67
2022-09-01T21:57:23.277Z,49.64
2022-09-01T21:59:51.683Z,49.56
2022-09-01T22:02:20.240Z,49.35
2022-09-01T22:04:47.597Z,48.12
2022-09-01T22:07:21.166Z,46.46
2022-09-01T22:09:48.346Z,42.37
2022-09-01T22:12:15.368Z,44.74
2022-09-01T22:14:42.395Z,46.36
2022-09-01T22:17:09.544Z,47.93
2022-09-01T22:19:36.753Z,46.59
2022-09-01T22:22:04.656Z,48.77
2022-09-01T22:24:31.781Z,46.21
2022-09-01T22:26:58.805Z,44.26
2022-09-01T22:29:25.742Z,43.79
2022-09-01T22:31:53.097Z,42.04
2022-09-01T22:34:20.268Z,44.86
2022-09-01T22:36:49.229Z,47.05
2022-09-01T22:39:18.154Z,45.85
2022-09-01T22:41:45.546Z,48.04
2022-09-01T22:44:13.569Z,48.66
2022-09-01T22:46:40.720Z,47.27
2022-09-01T22:49:08.480Z,48.73
2022-09-01T22:51:37.864Z,47.78
2022-09-01T22:54:06.404Z,48.91
2022-09-01T22:56:36.075Z,49.24
2022-09-01T22:59:07.214Z,49.09
2022-09-01T23:01:37.230Z,53.21
2022-09-01T23:04:06.423Z,51.43
2022-09-01T23:06:34.534Z,51.09
2022-09-01T23:09:02.668Z,50.03
2022-09-01T23:11:29.980Z,49.53
2022-09-01T23:13:57.081Z,48.38
2022-09-01T23:16:25.116Z,48.85
2022-09-01T23:18:53.495Z,48.54
2022-09-01T23:21:23.498Z,48.87
2022-09-01T23:23:58.230Z,50.30
2022-09-01T23:26:26.688Z,50.45
2022-09-01T23:28:53.709Z,49.38
2022-09-01T23:31:23.429Z,49.76
2022-09-01T23:33:51.358Z,49.37
2022-09-01T23:36:20.615Z,50.24
2022-09-01T23:38:48.706Z,52.39
2022-09-01T23:41:19.695Z,52.30
2022-09-01T23:43:46.608Z,52.05
2022-09-01T23:46:23.419Z,53.70
2022-09-01T23:48:50.872Z,53.00
2022-09-01T23:51:18.895Z,53.44
2022-09-01T23:53:46.599Z,55.92
2022-09-01T23:56:16.250Z,55.93
2022-09-01T23:58:43.701Z,56.99
